createdAt,value
2018-08-25T00:01:46.854Z,95226.00
2018-08-25T00:04:16.894Z,95208.00
2018-08-25T00:06:47.002Z,95222.00
2018-08-25T00:09:17.111Z,95219.00
2018-08-25T00:11:47.102Z,95202.00
2018-08-25T00:14:17.154Z,95206.00
2018-08-25T00:16:47.070Z,95197.00
2018-08-25T00:19:17.090Z,95204.00
2018-08-25T00:21:47.136Z,95203.00
2018-08-25T00:24:17.206Z,95198.00
2018-08-25T00:26:47.270Z,95196.00
2018-08-25T00:29:17.316Z,95197.00
2018-08-25T00:31:47.387Z,95204.00
2018-08-25T00:34:17.284Z,95195.00
2018-08-25T00:36:47.336Z,95203.00
2018-08-25T00:39:17.510Z,95203.00
2018-08-25T00:41:47.558Z,95195.00
2018-08-25T00:44:17.478Z,95207.00
2018-08-25T00:46:47.540Z,95208.00
2018-08-25T00:49:17.490Z,95205.00
2018-08-25T00:51:47.767Z,95196.00
2018-08-25T00:54:17.714Z,95192.00
2018-08-25T00:56:47.886Z,95202.00
2018-08-25T00:59:17.879Z,95204.00
2018-08-25T01:01:47.775Z,95196.00
2018-08-25T01:04:17.832Z,95194.00
2018-08-25T01:06:47.955Z,95202.00
2018-08-25T01:09:18.014Z,95183.00
2018-08-25T01:11:47.950Z,95197.00
2018-08-25T01:14:18.030Z,95195.00
2018-08-25T01:16:48.178Z,95192.00
2018-08-25T01:19:18.146Z,95201.00
2018-08-25T01:21:48.218Z,95192.00
2018-08-25T01:24:18.306Z,95195.00
2018-08-25T01:26:48.414Z,95187.00
2018-08-25T01:29:18.365Z,95189.00
2018-08-25T01:31:48.386Z,95192.00
2018-08-25T01:34:18.402Z,95195.00
2018-08-25T01:36:48.357Z,95196.00
2018-08-25T01:39:18.547Z,95197.00
2018-08-25T01:41:48.600Z,95197.00
2018-08-25T01:44:18.570Z,95202.00
2018-08-25T01:46:48.515Z,95204.00
2018-08-25T01:49:18.667Z,95197.00
2018-08-25T01:51:48.768Z,95197.00
2018-08-25T01:54:18.820Z,95206.00
2018-08-25T01:56:48.770Z,95205.00
2018-08-25T01:59:18.790Z,95194.00
2018-08-25T02:01:48.850Z,95190.00
2018-08-25T02:04:18.830Z,95187.00
2018-08-25T02:06:48.950Z,95184.00
2018-08-25T02:09:18.958Z,95179.00
2018-08-25T02:11:49.015Z,95177.00
2018-08-25T02:14:18.973Z,95179.00
2018-08-25T02:16:49.151Z,95183.00
2018-08-25T02:19:19.122Z,95188.00
2018-08-25T02:21:49.130Z,95186.00
2018-08-25T02:24:19.165Z,95187.00
2018-08-25T02:26:49.073Z,95185.00
2018-08-25T02:29:19.235Z,95173.00
2018-08-25T02:31:49.176Z,95178.00
2018-08-25T02:34:19.428Z,95173.00
2018-08-25T02:36:49.426Z,95172.00
2018-08-25T02:39:19.398Z,95158.00
2018-08-25T02:41:49.427Z,95163.00
2018-08-25T02:44:19.498Z,95171.00
2018-08-25T02:46:49.603Z,95166.00
2018-08-25T02:49:19.630Z,95170.00
2018-08-25T02:51:49.526Z,95177.00
2018-08-25T02:54:19.682Z,95168.00
2018-08-25T02:56:49.592Z,95166.00
2018-08-25T02:59:19.699Z,95169.00
2018-08-25T03:01:49.778Z,95173.00
2018-08-25T03:04:19.794Z,95164.00
2018-08-25T03:06:49.873Z,95171.00
2018-08-25T03:09:19.878Z,95173.00
2018-08-25T03:11:50.088Z,95185.00
2018-08-25T03:14:20.006Z,95189.00
2018-08-25T03:16:49.983Z,95186.00
2018-08-25T03:19:20.087Z,95183.00
2018-08-25T03:21:50.089Z,95177.00
2018-08-25T03:24:20.530Z,95171.00
2018-08-25T03:26:50.471Z,95181.00
2018-08-25T03:29:20.243Z,95184.00
2018-08-25T03:31:50.172Z,95178.00
2018-08-25T03:34:23.211Z,95176.00
2018-08-25T03:36:52.360Z,95170.00
2018-08-25T03:39:21.505Z,95171.00
2018-08-25T03:41:50.695Z,95166.00
2018-08-25T03:44:20.500Z,95172.00
2018-08-25T03:46:50.514Z,95176.00
2018-08-25T03:49:20.521Z,95174.00
2018-08-25T03:51:50.674Z,95182.00
2018-08-25T03:54:20.582Z,95181.00
2018-08-25T03:56:50.695Z,95178.00
2018-08-25T03:59:20.770Z,95149.00
2018-08-25T04:01:50.754Z,95146.00
2018-08-25T04:04:20.823Z,95151.00
2018-08-25T04:06:50.865Z,95142.00
2018-08-25T04:09:20.940Z,95147.00
2018-08-25T04:11:50.911Z,95147.00
2018-08-25T04:14:21.039Z,95154.00
2018-08-25T04:16:50.938Z,95154.00
2018-08-25T04:19:21.799Z,95140.00
2018-08-25T04:21:51.416Z,95155.00
2018-08-25T04:24:21.239Z,95157.00
2018-08-25T04:26:51.266Z,95158.00
2018-08-25T04:29:21.195Z,95144.00
2018-08-25T04:31:51.235Z,95144.00
2018-08-25T04:34:21.150Z,95147.00
2018-08-25T04:36:51.470Z,95161.00
2018-08-25T04:39:21.422Z,95149.00
2018-08-25T04:41:51.497Z,95155.00
2018-08-25T04:44:21.573Z,95159.00
2018-08-25T04:46:51.506Z,95158.00
2018-08-25T04:49:21.664Z,95157.00
2018-08-25T04:51:51.539Z,95163.00
2018-08-25T04:54:21.542Z,95158.00
2018-08-25T04:56:51.642Z,95161.00
2018-08-25T04:59:21.652Z,95166.00
2018-08-25T05:01:51.811Z,95157.00
2018-08-25T05:04:21.887Z,95162.00
2018-08-25T05:06:51.885Z,95159.00
2018-08-25T05:09:21.862Z,95163.00
2018-08-25T05:11:52.055Z,95159.00
2018-08-25T05:14:22.039Z,95167.00
2018-08-25T05:16:52.026Z,95159.00
2018-08-25T05:19:22.102Z,95162.00
2018-08-25T05:21:52.242Z,95164.00
2018-08-25T05:24:22.323Z,95164.00
2018-08-25T05:26:52.242Z,95170.00
2018-08-25T05:29:22.230Z,95166.00
2018-08-25T05:31:52.200Z,95179.00
2018-08-25T05:34:22.274Z,95176.00
2018-08-25T05:36:52.293Z,95175.00
2018-08-25T05:39:22.418Z,95175.00
2018-08-25T05:41:52.429Z,95177.00
2018-08-25T05:44:22.592Z,95178.00
2018-08-25T05:46:52.478Z,95176.00
2018-08-25T05:49:22.502Z,95183.00
2018-08-25T05:51:52.534Z,95174.00
2018-08-25T05:54:22.578Z,95169.00
2018-08-25T05:56:52.650Z,95172.00
2018-08-25T05:59:22.578Z,95167.00
2018-08-25T06:01:52.735Z,95179.00
2018-08-25T06:04:22.872Z,95180.00
2018-08-25T06:06:52.719Z,95179.00
2018-08-25T06:09:22.834Z,95180.00
2018-08-25T06:11:52.838Z,95176.00
2018-08-25T06:14:22.938Z,95177.00
2018-08-25T06:16:52.990Z,95180.00
2018-08-25T06:19:22.994Z,95169.00
2018-08-25T06:21:53.023Z,95180.00
2018-08-25T06:24:22.993Z,95173.00
2018-08-25T06:26:52.974Z,95170.00
2018-08-25T06:29:23.100Z,95177.00
2018-08-25T06:31:53.103Z,95175.00
2018-08-25T06:34:23.259Z,95167.00
2018-08-25T06:36:53.206Z,95174.00
2018-08-25T06:39:23.197Z,95168.00
2018-08-25T06:41:53.341Z,95163.00
2018-08-25T06:44:26.230Z,95171.00
2018-08-25T06:46:55.427Z,95170.00
2018-08-25T06:49:24.623Z,95166.00
2018-08-25T06:51:54.201Z,95166.00
2018-08-25T06:54:23.619Z,95172.00
2018-08-25T06:56:53.622Z,95168.00
2018-08-25T06:59:23.856Z,95171.00
2018-08-25T07:01:53.770Z,95171.00
2018-08-25T07:04:23.713Z,95166.00
2018-08-25T07:06:53.741Z,95169.00
2018-08-25T07:09:23.775Z,95161.00
2018-08-25T07:11:53.942Z,95163.00
2018-08-25T07:14:23.870Z,95165.00
2018-08-25T07:16:54.103Z,95166.00
2018-08-25T07:19:24.166Z,95162.00
2018-08-25T07:21:54.259Z,95160.00
2018-08-25T07:24:27.205Z,95168.00
2018-08-25T07:26:56.399Z,95174.00
2018-08-25T07:29:25.761Z,95164.00
2018-08-25T07:31:55.022Z,95163.00
2018-08-25T07:34:24.209Z,95167.00
2018-08-25T07:36:54.675Z,95159.00
2018-08-25T07:39:24.462Z,95160.00
2018-08-25T07:41:54.454Z,95157.00
2018-08-25T07:44:24.594Z,95166.00
2018-08-25T07:46:54.615Z,95168.00
2018-08-25T07:49:24.770Z,95154.00
2018-08-25T07:51:54.522Z,95154.00
2018-08-25T07:54:24.707Z,95160.00
2018-08-25T07:56:54.732Z,95147.00
2018-08-25T07:59:24.885Z,95151.00
2018-08-25T08:01:54.854Z,95154.00
2018-08-25T08:04:24.902Z,95146.00
2018-08-25T08:06:55.015Z,95159.00
2018-08-25T08:09:24.959Z,95149.00
2018-08-25T08:11:55.128Z,95151.00
2018-08-25T08:14:25.017Z,95149.00
2018-08-25T08:16:55.054Z,95156.00
2018-08-25T08:19:25.135Z,95146.00
2018-08-25T08:21:55.254Z,95147.00
2018-08-25T08:24:25.263Z,95156.00
2018-08-25T08:26:55.363Z,95148.00
2018-08-25T08:29:25.442Z,95149.00
2018-08-25T08:31:55.482Z,95149.00
2018-08-25T08:34:25.418Z,95133.00
2018-08-25T08:36:55.566Z,95141.00
2018-08-25T08:39:25.476Z,95141.00
2018-08-25T08:41:55.522Z,95137.00
2018-08-25T08:44:25.526Z,95136.00
2018-08-25T08:46:55.675Z,95140.00
2018-08-25T08:49:25.821Z,95152.00
2018-08-25T08:51:55.746Z,95138.00
2018-08-25T08:54:25.758Z,95147.00
2018-08-25T08:56:55.980Z,95149.00
2018-08-25T08:59:26.011Z,95148.00
2018-08-25T09:01:55.978Z,95145.00
2018-08-25T09:04:27.102Z,95155.00
2018-08-25T09:06:56.258Z,95154.00
2018-08-25T09:09:27.251Z,95149.00
2018-08-25T09:11:56.388Z,95144.00
2018-08-25T09:14:27.287Z,95160.00
2018-08-25T09:16:56.495Z,95152.00
2018-08-25T09:19:26.444Z,95153.00
2018-08-25T09:21:56.351Z,95159.00
2018-08-25T09:24:27.478Z,95157.00
2018-08-25T09:26:56.572Z,95155.00
2018-08-25T09:29:26.527Z,95148.00
2018-08-25T09:31:56.539Z,95138.00
2018-08-25T09:34:26.510Z,95158.00
2018-08-25T09:36:56.656Z,95152.00
2018-08-25T09:39:26.630Z,95154.00
2018-08-25T09:41:56.755Z,95146.00
2018-08-25T09:44:26.704Z,95146.00
2018-08-25T09:46:56.798Z,95135.00
2018-08-25T09:49:26.796Z,95137.00
2018-08-25T09:51:56.825Z,95135.00
2018-08-25T09:54:27.010Z,95138.00
2018-08-25T09:56:57.055Z,95139.00
2018-08-25T09:59:26.971Z,95146.00
2018-08-25T10:01:59.087Z,95151.00
2018-08-25T10:04:29.035Z,95149.00
2018-08-25T10:06:58.143Z,95149.00
2018-08-25T10:09:28.482Z,95149.00
2018-08-25T10:11:57.746Z,95135.00
2018-08-25T10:14:28.456Z,95137.00
2018-08-25T10:16:57.633Z,95149.00
2018-08-25T10:19:28.435Z,95150.00
2018-08-25T10:21:57.514Z,95143.00
2018-08-25T10:24:28.594Z,95138.00
2018-08-25T10:26:57.746Z,95140.00
2018-08-25T10:29:28.566Z,95140.00
2018-08-25T10:31:57.728Z,95140.00
2018-08-25T10:34:28.405Z,95138.00
2018-08-25T10:36:57.714Z,95135.00
2018-08-25T10:39:28.708Z,95137.00
2018-08-25T10:41:57.936Z,95130.00
2018-08-25T10:44:28.614Z,95132.00
2018-08-25T10:46:57.826Z,95135.00
2018-08-25T10:49:27.386Z,95137.00
2018-08-25T10:51:57.650Z,95142.00
2018-08-25T10:54:28.586Z,95142.00
2018-08-25T10:56:57.834Z,95136.00
2018-08-25T10:59:27.396Z,95133.00
2018-08-25T11:01:57.746Z,95131.00
2018-08-25T11:04:27.232Z,95125.00
2018-08-25T11:06:56.506Z,95112.00
2018-08-25T11:09:25.694Z,95126.00
2018-08-25T11:11:54.823Z,95127.00
2018-08-25T11:14:23.994Z,95123.00
2018-08-25T11:16:53.195Z,95121.00
2018-08-25T11:19:22.255Z,95117.00
2018-08-25T11:21:51.402Z,95116.00
2018-08-25T11:24:20.610Z,95117.00
2018-08-25T11:26:49.766Z,95115.00
2018-08-25T11:29:19.057Z,95106.00
2018-08-25T11:31:48.458Z,95113.00
2018-08-25T11:34:17.693Z,95109.00
2018-08-25T11:36:46.917Z,95109.00
2018-08-25T11:39:16.066Z,95115.00
2018-08-25T11:41:45.210Z,95113.00
2018-08-25T11:44:14.387Z,95107.00
2018-08-25T11:46:43.632Z,95118.00
2018-08-25T11:49:13.278Z,95111.00
2018-08-25T11:51:42.546Z,95113.00
2018-08-25T11:54:18.322Z,95112.00
2018-08-25T11:56:47.506Z,95108.00
2018-08-25T11:59:16.813Z,95106.00
2018-08-25T12:01:45.970Z,95103.00
2018-08-25T12:04:15.168Z,95102.00
2018-08-25T12:06:44.333Z,95103.00
2018-08-25T12:09:13.618Z,95095.00
2018-08-25T12:11:42.734Z,95097.00
2018-08-25T12:14:11.913Z,95095.00
2018-08-25T12:16:41.314Z,95096.00
2018-08-25T12:19:10.483Z,95087.00
2018-08-25T12:21:39.689Z,95095.00
2018-08-25T12:24:09.041Z,95108.00
2018-08-25T12:26:38.260Z,95111.00
2018-08-25T12:29:07.446Z,95112.00
2018-08-25T12:31:36.606Z,95107.00
2018-08-25T12:34:05.690Z,95109.00
2018-08-25T12:36:34.931Z,95122.00
2018-08-25T12:39:06.247Z,95112.00
2018-08-25T12:41:35.628Z,95116.00
2018-08-25T12:44:04.826Z,95114.00
2018-08-25T12:46:34.211Z,95131.00
2018-08-25T12:49:03.372Z,95129.00
2018-08-25T12:51:32.717Z,95121.00
2018-08-25T12:54:01.892Z,95132.00
2018-08-25T12:56:31.111Z,95130.00
2018-08-25T12:59:00.342Z,95146.00
2018-08-25T13:01:29.539Z,95127.00
2018-08-25T13:03:59.154Z,95129.00
2018-08-25T13:06:29.215Z,95128.00
2018-08-25T13:08:59.202Z,95122.00
2018-08-25T13:11:29.146Z,95137.00
2018-08-25T13:13:59.088Z,95142.00
2018-08-25T13:16:29.206Z,95131.00
2018-08-25T13:18:59.307Z,95142.00
2018-08-25T13:21:29.386Z,95132.00
2018-08-25T13:23:59.391Z,95130.00
2018-08-25T13:26:29.414Z,95131.00
2018-08-25T13:28:59.382Z,95128.00
2018-08-25T13:31:29.466Z,95131.00
2018-08-25T13:33:59.418Z,95135.00
2018-08-25T13:36:29.495Z,95143.00
2018-08-25T13:38:59.480Z,95142.00
2018-08-25T13:41:29.490Z,95152.00
2018-08-25T13:43:59.547Z,95149.00
2018-08-25T13:46:29.539Z,95159.00
2018-08-25T13:48:59.574Z,95159.00
2018-08-25T13:51:29.603Z,95166.00
2018-08-25T13:53:59.643Z,95166.00
2018-08-25T13:56:30.372Z,95161.00
2018-08-25T13:58:59.720Z,95147.00
2018-08-25T14:01:29.747Z,95156.00
2018-08-25T14:03:59.890Z,95156.00
2018-08-25T14:06:29.758Z,95155.00
2018-08-25T14:08:59.928Z,95161.00
2018-08-25T14:11:29.890Z,95155.00
2018-08-25T14:13:59.900Z,95149.00
2018-08-25T14:16:29.899Z,95159.00
2018-08-25T14:18:59.950Z,95158.00
2018-08-25T14:21:29.944Z,95160.00
2018-08-25T14:24:00.027Z,95159.00
2018-08-25T14:26:30.123Z,95165.00
2018-08-25T14:29:00.201Z,95163.00
2018-08-25T14:31:30.050Z,95158.00
2018-08-25T14:34:00.134Z,95158.00
2018-08-25T14:36:30.176Z,95152.00
2018-08-25T14:39:00.211Z,95164.00
2018-08-25T14:41:30.232Z,95155.00
2018-08-25T14:44:00.254Z,95141.00
2018-08-25T14:46:30.233Z,95146.00
2018-08-25T14:49:00.279Z,95157.00
2018-08-25T14:51:30.534Z,95150.00
2018-08-25T14:54:00.317Z,95148.00
2018-08-25T14:56:30.462Z,95149.00
2018-08-25T14:59:00.447Z,95160.00
2018-08-25T15:01:30.526Z,95162.00
2018-08-25T15:04:00.974Z,95162.00
2018-08-25T15:06:30.484Z,95177.00
2018-08-25T15:09:00.587Z,95171.00
2018-08-25T15:11:30.479Z,95165.00
2018-08-25T15:14:00.510Z,95169.00
2018-08-25T15:16:30.655Z,95173.00
2018-08-25T15:19:00.671Z,95164.00
2018-08-25T15:21:30.782Z,95173.00
2018-08-25T15:24:00.786Z,95168.00
2018-08-25T15:26:30.852Z,95178.00
2018-08-25T15:29:00.822Z,95167.00
2018-08-25T15:31:30.872Z,95174.00
2018-08-25T15:34:00.891Z,95165.00
2018-08-25T15:36:30.938Z,95165.00
2018-08-25T15:39:00.934Z,95170.00
2018-08-25T15:41:31.063Z,95178.00
2018-08-25T15:44:01.058Z,95173.00
2018-08-25T15:46:31.028Z,95177.00
2018-08-25T15:49:00.943Z,95184.00
2018-08-25T15:51:31.164Z,95186.00
2018-08-25T15:54:01.130Z,95186.00
2018-08-25T15:56:31.191Z,95192.00
2018-08-25T15:59:01.182Z,95185.00
2018-08-25T16:01:31.155Z,95195.00
2018-08-25T16:04:01.373Z,95190.00
2018-08-25T16:06:31.322Z,95186.00
2018-08-25T16:09:01.398Z,95175.00
2018-08-25T16:11:31.364Z,95180.00
2018-08-25T16:14:01.455Z,95185.00
2018-08-25T16:16:31.433Z,95183.00
2018-08-25T16:19:01.538Z,95193.00
2018-08-25T16:21:31.469Z,95190.00
2018-08-25T16:24:01.544Z,95192.00
2018-08-25T16:26:31.583Z,95192.00
2018-08-25T16:29:01.646Z,95197.00
2018-08-25T16:31:31.607Z,95184.00
2018-08-25T16:34:01.810Z,95184.00
2018-08-25T16:36:31.703Z,95195.00
2018-08-25T16:39:01.656Z,95189.00
2018-08-25T16:41:31.735Z,95182.00
2018-08-25T16:44:01.665Z,95192.00
2018-08-25T16:46:31.871Z,95196.00
2018-08-25T16:49:01.907Z,95184.00
2018-08-25T16:51:31.861Z,95204.00
2018-08-25T16:54:01.926Z,95193.00
2018-08-25T16:56:31.943Z,95201.00
2018-08-25T16:59:01.989Z,95197.00
2018-08-25T17:01:32.067Z,95209.00
2018-08-25T17:04:01.990Z,95198.00
2018-08-25T17:06:32.050Z,95209.00
2018-08-25T17:09:02.103Z,95212.00
2018-08-25T17:11:32.306Z,95212.00
2018-08-25T17:14:02.174Z,95212.00
2018-08-25T17:16:32.267Z,95223.00
2018-08-25T17:19:02.346Z,95217.00
2018-08-25T17:21:32.230Z,95219.00
2018-08-25T17:24:02.342Z,95210.00
2018-08-25T17:26:31.578Z,95222.00
2018-08-25T17:29:00.830Z,95221.00
2018-08-25T17:31:29.970Z,95227.00
2018-08-25T17:33:59.139Z,95229.00
2018-08-25T17:36:28.347Z,95233.00
2018-08-25T17:38:57.546Z,95233.00
2018-08-25T17:41:27.419Z,95231.00
2018-08-25T17:43:56.747Z,95236.00
2018-08-25T17:46:25.953Z,95222.00
2018-08-25T17:48:55.042Z,95235.00
2018-08-25T17:51:24.258Z,95232.00
2018-08-25T17:53:53.409Z,95231.00
2018-08-25T17:56:22.581Z,95239.00
2018-08-25T17:58:51.779Z,95244.00
2018-08-25T18:01:20.932Z,95238.00
2018-08-25T18:03:50.220Z,95246.00
2018-08-25T18:06:19.406Z,95241.00
2018-08-25T18:08:48.590Z,95242.00
2018-08-25T18:11:17.784Z,95251.00
2018-08-25T18:13:46.936Z,95254.00
2018-08-25T18:16:16.129Z,95258.00
2018-08-25T18:18:45.287Z,95258.00
2018-08-25T18:21:14.867Z,95267.00
2018-08-25T18:23:44.311Z,95267.00
2018-08-25T18:26:14.079Z,95269.00
2018-08-25T18:28:43.414Z,95262.00
2018-08-25T18:31:12.550Z,95261.00
2018-08-25T18:33:41.814Z,95267.00
2018-08-25T18:36:11.044Z,95274.00
2018-08-25T18:38:40.192Z,95276.00
2018-08-25T18:41:09.435Z,95268.00
2018-08-25T18:43:38.522Z,95276.00
2018-08-25T18:46:07.731Z,95266.00
2018-08-25T18:48:37.013Z,95275.00
2018-08-25T18:51:06.075Z,95275.00
2018-08-25T18:53:35.336Z,95287.00
2018-08-25T18:56:04.465Z,95275.00
2018-08-25T18:58:33.581Z,95286.00
2018-08-25T19:01:03.595Z,95286.00
2018-08-25T19:03:33.650Z,95293.00
2018-08-25T19:06:03.670Z,95293.00
2018-08-25T19:08:33.703Z,95296.00
2018-08-25T19:11:03.665Z,95296.00
2018-08-25T19:13:33.560Z,95294.00
2018-08-25T19:16:03.700Z,95305.00
2018-08-25T19:18:33.805Z,95288.00
2018-08-25T19:21:03.691Z,95291.00
2018-08-25T19:23:33.778Z,95297.00
2018-08-25T19:26:03.970Z,95296.00
2018-08-25T19:28:34.019Z,95295.00
2018-08-25T19:31:03.926Z,95302.00
2018-08-25T19:33:33.976Z,95300.00
2018-08-25T19:36:04.028Z,95308.00
2018-08-25T19:38:34.171Z,95302.00
2018-08-25T19:41:04.021Z,95296.00
2018-08-25T19:43:34.082Z,95303.00
2018-08-25T19:46:04.145Z,95308.00
2018-08-25T19:48:34.239Z,95303.00
2018-08-25T19:51:04.106Z,95304.00
2018-08-25T19:53:34.276Z,95311.00
2018-08-25T19:56:04.336Z,95295.00
2018-08-25T19:58:34.301Z,95303.00
2018-08-25T20:01:04.359Z,95301.00
2018-08-25T20:03:34.454Z,95310.00
2018-08-25T20:06:04.595Z,95313.00
2018-08-25T20:08:34.460Z,95316.00
2018-08-25T20:11:04.499Z,95316.00
2018-08-25T20:13:34.668Z,95316.00
2018-08-25T20:16:04.686Z,95310.00
2018-08-25T20:18:34.662Z,95315.00
2018-08-25T20:21:04.967Z,95315.00
2018-08-25T20:23:34.762Z,95313.00
2018-08-25T20:26:04.816Z,95319.00
2018-08-25T20:28:34.834Z,95318.00
2018-08-25T20:31:05.047Z,95330.00
2018-08-25T20:33:34.792Z,95325.00
2018-08-25T20:36:04.898Z,95318.00
2018-08-25T20:38:34.966Z,95327.00
2018-08-25T20:41:05.134Z,95331.00
2018-08-25T20:43:35.184Z,95340.00
2018-08-25T20:46:05.326Z,95332.00
2018-08-25T20:48:35.139Z,95333.00
2018-08-25T20:51:05.210Z,95330.00
2018-08-25T20:53:35.222Z,95340.00
2018-08-25T20:56:05.230Z,95331.00
2018-08-25T20:58:35.312Z,95331.00
2018-08-25T21:01:05.338Z,95344.00
2018-08-25T21:03:35.366Z,95351.00
2018-08-25T21:06:05.373Z,95344.00
2018-08-25T21:08:35.515Z,95354.00
2018-08-25T21:11:05.610Z,95353.00
2018-08-25T21:13:35.546Z,95360.00
2018-08-25T21:16:05.487Z,95361.00
2018-08-25T21:18:35.531Z,95352.00
2018-08-25T21:21:05.790Z,95349.00
2018-08-25T21:23:35.944Z,95362.00
2018-08-25T21:26:06.032Z,95373.00
2018-08-25T21:28:35.730Z,95362.00
2018-08-25T21:31:05.976Z,95356.00
2018-08-25T21:33:35.895Z,95355.00
2018-08-25T21:36:05.989Z,95361.00
2018-08-25T21:38:35.889Z,95356.00
2018-08-25T21:41:06.294Z,95366.00
2018-08-25T21:43:36.130Z,95369.00
2018-08-25T21:46:06.024Z,95364.00
2018-08-25T21:48:36.022Z,95364.00
2018-08-25T21:51:06.120Z,95362.00
2018-08-25T21:53:36.142Z,95366.00
2018-08-25T21:56:06.122Z,95351.00
2018-08-25T21:58:36.131Z,95350.00
2018-08-25T22:01:06.148Z,95349.00
2018-08-25T22:03:36.101Z,95359.00
2018-08-25T22:06:06.295Z,95353.00
2018-08-25T22:08:36.219Z,95350.00
2018-08-25T22:11:06.208Z,95350.00
2018-08-25T22:13:36.151Z,95357.00
2018-08-25T22:16:06.311Z,95367.00
2018-08-25T22:18:36.446Z,95363.00
2018-08-25T22:21:06.480Z,95368.00
2018-08-25T22:23:36.322Z,95356.00
2018-08-25T22:26:06.467Z,95369.00
2018-08-25T22:28:36.508Z,95363.00
2018-08-25T22:31:06.480Z,95369.00
2018-08-25T22:33:36.556Z,95364.00
2018-08-25T22:36:06.514Z,95349.00
2018-08-25T22:38:36.659Z,95355.00
2018-08-25T22:41:06.648Z,95350.00
2018-08-25T22:43:36.679Z,95364.00
2018-08-25T22:46:07.558Z,95360.00
2018-08-25T22:48:36.637Z,95362.00
2018-08-25T22:51:06.547Z,95361.00
2018-08-25T22:53:36.742Z,95361.00
2018-08-25T22:56:06.773Z,95358.00
2018-08-25T22:58:36.710Z,95353.00
2018-08-25T23:01:07.148Z,95348.00
2018-08-25T23:03:36.775Z,95350.00
2018-08-25T23:06:07.202Z,95347.00
2018-08-25T23:08:36.863Z,95348.00
2018-08-25T23:11:06.798Z,95346.00
2018-08-25T23:13:36.999Z,95353.00
2018-08-25T23:16:07.014Z,95354.00
2018-08-25T23:18:36.932Z,95354.00
2018-08-25T23:21:06.953Z,95354.00
2018-08-25T23:23:37.067Z,95356.00
2018-08-25T23:26:07.402Z,95351.00
2018-08-25T23:28:37.078Z,95347.00
2018-08-25T23:31:07.178Z,95339.00
2018-08-25T23:33:37.238Z,95348.00
2018-08-25T23:36:07.180Z,95350.00
2018-08-25T23:38:37.335Z,95356.00
2018-08-25T23:41:10.473Z,95354.00
2018-08-25T23:43:39.670Z,95348.00
2018-08-25T23:46:08.911Z,95362.00
2018-08-25T23:48:38.083Z,95353.00
2018-08-25T23:51:07.327Z,95355.00
2018-08-25T23:53:37.448Z,95354.00
2018-08-25T23:56:07.390Z,95344.00
2018-08-25T23:58:37.526Z,95341.00
